Chicot, Arkansas
Current Conditions -  °F | °C
As of 1:53 AM on Tuesday 27 Jan 2015 (Local Time) from KGLH Reporting Station
Clear Clear  
Wind Chill: 42°   Ceiling: Unl
Heat Index: 46°   Visibility: 10mi
Dew Point: 36°   Wind: 8mph
Humidity: 68%   Direction: 290°WNW
Pressure: 30"   Gusts: NA
Location:  33.1306°N, 91.2896°W
Report Text: KGLH 270753Z AUTO 29007KT 10SM CLR 08/02 A3000 RMK AO2 SLP167 T00780022
Loading
Personal Weather Stations






























Interactive Weather Map New forecast layout! Learn more

10-Day Weather Forecast

Advertisements
Track Severe Weather on mobile